Stuart, FL

11:01 PM EDT on September 01, 2014 (GMT -0400)
Palm Beach International | Change Station
CLOSE
Current Station
Airport
Location: West Palm Beach,
Elevation: 20 ft
Nearby Weather Stations

Elev 20 ft 26.68 °N, 80.10 °W | Updated 8 minutes ago

Partly Cloudy
Partly Cloudy
84 °F
Feels Like 90 °F
N
8
Wind Variable Wind from ESE

Today
High -- | Low -- °F
--% Chance of Precip.
Yesterday
High -- | Low -- °F
Precip. -- in
7:00 AM 7:41 PM
Waxing Crescent, 46% visible
Pressure 30.09 in
Visibility 10.0 miles
Clouds Few 3000 ft
Heat Index 90 °F
Dew Point 73 °F
Humidity 69%
Rainfall 0.00 in
Snow Depth Not available.
UV 0 out of 12
Pollen 5.20 out of 12
Air Quality Not available.
Flu Activity Not available.
METAR KPBI 020253Z 11007KT 10SM FEW030 29/23 A3009 RMK AO2 SLP187 T02890228 52017

More Conditions Fewer Conditions

Pressure 30.09 in
Visibility 10.0 miles
Clouds Few 3000 ft
Heat Index 90 °F
Dew Point 73 °F
Humidity 69%
Rainfall 0.00 in
Snow Depth Not available.
UV 0 out of 12
Pollen 5.20 out of 12
Air Quality Not available.
Flu Activity Not available.
METAR KPBI 020253Z 11007KT 10SM FEW030 29/23 A3009 RMK AO2 SLP187 T02890228 52017

More Conditions Fewer Conditions

Nowcast | as of 9:56 PM EDT on September 1, 2014

Through late night...isolated showers over the coastal waters will remain possible with only slow westward movement towards the Treasure Coast. Skies will become partly cloudy over east central Florida with light winds. Temperatures in the 70s for lows. Additional details...including graphics are available online at: http://www.Srh.NOAA.Gov/mlb/blog.Php

×

10-Day Weather Forecast

Almanac

Astronomy

Sep. 01, 2014 Rise Set
Actual Time 7:00 AM EDT 7:41 PM EDT
Civil Twilight 6:36 AM EDT 8:04 PM EDT
Nautical Twilight 6:08 AM EDT 8:32 PM EDT
Astronomical Twilight 5:40 AM EDT 9:01 PM EDT
Moon 1:08 PM EDT (9/1) No Moon Set
Length of Visible Light 13h 28m
Length of Day
12h 41m
Tomorrow will be 1m 32s shorter.
Waxing Crescent, 46% of the Moon is Illuminated
Today
Waxing Crescent
Sep 2
First Quarter
Sep 8
Full
Sep 15
Last Quarter
Sep 24
New

Today's Extremes

State Highs State Lows

Community

WunderPhotos

Upload Photos

1,749,537 photos uploaded!

WunderBlogs® & News

Nearby

Snow Depth

Station Depth Elevation
No new snow has been reported.

Earthquake Activity

City Distance Mag. Time & Date
No recent earthquake activity has been reported nearby.
Minimum magnitude displayed is 2.5.

Coastal Water Temperatures

Place Temperature
Lake Worth, FL 87.1 °F
Trident Pier, FL 87.1 °F
Virginia Key, FL 87.1 °F

Nearby Weather Stations